Monday, December 22, 2014
16:17 UTC
  |  Log In   |  Register Free
Airport Search:

Pocono Mountains Municipal Airport
(KMPO)

Pocono Mountains Municipal Airport Diagram
No Airport Diagram Available

FAA data valid effective November 13, 2014 - January 08, 2015 (unless otherwise noted).

 
 
 
 
 
 
 
 
 
 
 
 
 
 

Current Aviation Weather for Pocono Mountains Municipal Airport (KMPO)

The most recent METAR observation for KMPO was updated at: 2117
METAR Summary (Translated METAR)
KMPO
182053Z AUTO 30013G24KT 10SM OVC017 M01/M05 A2992 RMK AO2 SLP151 T10061050 53002
KAVP
182054Z AUTO 31008KT 10SM OVC025 02/M04 A2999 RMK AO2 SLP163 T00221039 53005
(19.6 nm NW from KMPO)
KABE
182051Z 28014G17KT 10SM OVC036 03/M05 A3000 RMK AO2 SLP163 T00331050 55001
(29.3 nm SW from KMPO)
TAF Summary (Translated TAF)
KAVP
(19.6 nm NW from KMPO)
221522Z 2215/2312 17010G18KT P6SM OVC015 FM221800 16012G20KT P6SM BKN025 BKN150 FM222300 10003KT 5SM -RASN OVC020 FM230200 07002KT 5SM -RA OVC015
KABE
(29.3 nm SW from KMPO)
221510Z 2215/2312 VRB03KT P6SM BKN012 OVC025 FM221800 09005KT P6SM SCT025 OVC060 TEMPO 2219/2221 6SM -RA FM222100 08004KT 5SM -RA BKN025 OVC050 FM230500 07004KT 4SM -RA BR BKN007 OVC015 FM230800 07005KT 2SM -RADZ BR OVC004
  Airport Weather Conditions for KMPO

 Current Weather at MPO
30° F
Overcast
Southeast winds at 5.8 mph
MPO NOAA Radar

Pressure: 30.25 in
Humidity: 88%
Wind: Southeast at 5.8 MPH (5 KT)
Dew Point: 27.0°F
Visibility: 8.00 mi


Airport Weather Forecast for KMPO

Translated METAR and TAF for KMPO
Translated METAR for KMPO (1618 UTC 22 December 2014)
found at http://aviationweather.gov/adds/metars/
 
METAR text: KMPO 221601Z AUTO 12005KT 9SM BKN004 OVC012 M01/M03 A3024 RMK AO2 T10061028
Conditions at: KMPO (MT. POCONO , PA, US) observed 1601 UTC 22 December 2014
Temperature: -0.6°C (31°F)
Dewpoint: -2.8°C (27°F) [RH = 85%]
Pressure (altimeter): 30.24 inches Hg (1024.1 mb)
Winds: from the ESE (120 degrees) at 6 MPH (5 knots; 2.6 m/s)
Visibility: 9 miles (14 km)
Ceiling: 400 feet AGL
Clouds: broken clouds at 400 feet AGL
overcast cloud deck at 1200 feet AGL
Weather: automated observation with no human augmentation;
there may or may not be significant weather present at this time
Translated TAF for KMPO

There is no translated TAF available for this airport

Find All Airport Services Find A Hotel Find A Rental Car Find A Golf Course Find A Restaurant $100 Hamburger



FBO's on the Field
FBO Company Facility Photos Services Transportation Aviation Fuel Prices: Prices include tax
Catering Weather Repair Courtesy Rental Type 100LL JetA JetA+ MOGAS 8087
 
Pocono Mountains Municipal Airport Authority

This FBO has not yet been rated
FS:Phillips 66
Last Updated: Nov-21
Login to update fuel prices
SS:
Contact Pocono Mountains Municipal Airport AuthorityMore FBO Information
 
Add another FBO Facility Photos Catering Weather Repair Courtesy Rental Type 100LL JetA JetA+ MOGAS 8087
Services Transportation Aviation Fuel Prices: Prices include tax


model-print
model-print
model-print
model-print